Time;durP1;ratioP1;P1;durP2;ratioP2;P2;SDS_P1;SDS_P2;PMS_P1;PMS_P2;Temp;Humidity;BMP_temperature;BMP_pressure;BME280_temperature;BME280_humidity;BME280_pressure;Samples;Min_cycle;Max_cycle;Signal;HPM_P1;HPM_P2
2022/01/30 00:00:33;;;;;;;1.73;1.63;;;4.60;96.30;;;;;;5052763;28;20324;-59
2022/01/30 00:03:01;;;;;;;1.67;1.58;;;4.60;96.30;;;;;;5053983;28;20342;-60
2022/01/30 00:05:30;;;;;;;1.90;1.80;;;4.70;96.20;;;;;;5054030;28;20208;-59
2022/01/30 00:07:57;;;;;;;2.03;1.90;;;4.70;96.10;;;;;;5053917;28;20309;-57
2022/01/30 00:10:24;;;;;;;1.52;1.42;;;4.80;96.10;;;;;;5053978;28;20641;-58
2022/01/30 00:12:54;;;;;;;2.00;1.80;;;4.90;95.80;;;;;;5053948;28;20271;-60
2022/01/30 00:15:34;;;;;;;2.17;1.98;;;4.90;95.50;;;;;;5052506;28;20268;-59
2022/01/30 00:18:13;;;;;;;1.80;1.70;;;4.90;95.50;;;;;;5053487;28;20671;-58
2022/01/30 00:20:43;;;;;;;2.13;1.92;;;4.90;95.60;;;;;;5053969;28;20204;-58
2022/01/30 00:23:14;;;;;;;1.92;1.80;;;5.00;95.40;;;;;;5053648;28;20201;-61
2022/01/30 00:25:48;;;;;;;1.90;1.80;;;5.00;95.30;;;;;;5053921;28;20210;-56
2022/01/30 00:28:18;;;;;;;2.63;2.28;;;5.10;95.20;;;;;;5053645;28;20608;-56
2022/01/30 00:30:45;;;;;;;1.80;1.70;;;5.20;94.80;;;;;;5052141;28;20221;-58
2022/01/30 00:33:14;;;;;;;1.65;1.55;;;5.20;94.30;;;;;;5053438;28;20232;-57
2022/01/30 00:35:41;;;;;;;1.95;1.85;;;5.30;94.20;;;;;;5053396;28;20232;-59
2022/01/30 00:38:10;;;;;;;2.38;2.17;;;5.40;94.00;;;;;;5053489;28;20209;-58
2022/01/30 00:40:37;;;;;;;2.22;2.03;;;5.30;93.60;;;;;;5053403;28;20644;-58
2022/01/30 00:43:05;;;;;;;2.30;1.70;;;5.40;93.60;;;;;;5053232;28;20206;-58
2022/01/30 00:45:32;;;;;;;2.00;1.90;;;5.40;93.70;;;;;;5052207;28;20209;-59
2022/01/30 00:47:59;;;;;;;2.13;1.95;;;5.50;93.20;;;;;;5053061;28;20546;-59
2022/01/30 00:50:27;;;;;;;1.88;1.77;;;5.40;93.20;;;;;;5053225;28;20208;-62
2022/01/30 00:52:55;;;;;;;2.15;2.00;;;5.50;93.60;;;;;;5053122;28;20296;-57
2022/01/30 00:55:22;;;;;;;1.80;1.70;;;5.50;93.40;;;;;;5052864;28;20225;-59
2022/01/30 00:57:49;;;;;;;2.00;1.80;;;5.50;93.40;;;;;;5053120;28;20237;-60
2022/01/30 01:00:16;;;;;;;1.90;1.80;;;5.50;93.60;;;;;;5051719;28;20247;-58
2022/01/30 01:02:43;;;;;;;2.10;1.90;;;5.50;93.70;;;;;;5052920;28;20206;-57
2022/01/30 01:05:10;;;;;;;2.00;1.90;;;5.50;93.70;;;;;;5052999;28;20292;-57
2022/01/30 01:07:43;;;;;;;1.63;1.52;;;5.50;94.00;;;;;;5053077;28;20233;-60
2022/01/30 01:10:16;;;;;;;3.08;2.13;;;5.40;94.30;;;;;;5052893;28;20229;-59
2022/01/30 01:13:06;;;;;;;2.75;2.22;;;5.40;94.30;;;;;;5052855;28;20212;-61
2022/01/30 01:23:55;;;;;;;2.35;2.15;;;5.60;94.30;;;;;;5052911;28;20244;-61
2022/01/30 01:26:24;;;;;;;2.08;1.92;;;5.60;94.20;;;;;;5052801;28;20284;-60
2022/01/30 01:28:51;;;;;;;2.13;2.00;;;5.60;94.40;;;;;;5051883;28;20204;-63
2022/01/30 01:31:18;;;;;;;2.03;1.90;;;5.70;94.30;;;;;;5052235;28;20209;-60
2022/01/30 01:34:01;;;;;;;2.20;2.00;;;5.70;94.00;;;;;;5052736;28;20211;-62
2022/01/30 01:36:28;;;;;;;2.53;2.30;;;5.70;94.00;;;;;;5052594;28;20233;-61
2022/01/30 01:38:56;;;;;;;2.15;1.95;;;5.70;93.90;;;;;;5052743;28;20296;-62
2022/01/30 01:41:25;;;;;;;3.30;2.15;;;5.70;93.90;;;;;;5052537;28;20798;-62
2022/01/30 01:43:53;;;;;;;2.40;2.20;;;5.70;94.10;;;;;;5051667;28;20660;-59
2022/01/30 01:46:24;;;;;;;2.60;2.20;;;5.70;94.20;;;;;;5052643;28;20201;-62
2022/01/30 01:48:52;;;;;;;5.25;2.47;;;5.80;94.00;;;;;;5052326;28;20209;-57
2022/01/30 01:51:23;;;;;;;2.60;2.40;;;5.60;93.70;;;;;;5052541;28;20568;-63
2022/01/30 01:53:53;;;;;;;2.85;2.50;;;5.60;94.00;;;;;;5052359;28;20295;-58
2022/01/30 01:56:22;;;;;;;3.45;3.17;;;5.50;94.40;;;;;;5052387;28;20772;-62
2022/01/30 01:58:50;;;;;;;2.60;2.40;;;5.50;94.60;;;;;;5051990;28;20296;-60
2022/01/30 02:01:17;;;;;;;3.15;2.30;;;5.50;94.50;;;;;;5051873;28;20233;-61
2022/01/30 02:03:44;;;;;;;2.50;2.30;;;5.60;94.50;;;;;;5052227;28;20205;-64
2022/01/30 02:06:15;;;;;;;2.30;2.10;;;5.70;94.10;;;;;;5052314;28;20217;-60
2022/01/30 02:08:44;;;;;;;2.30;2.10;;;5.60;94.00;;;;;;5052277;28;20210;-61
2022/01/30 02:11:14;;;;;;;2.65;2.45;;;5.60;94.10;;;;;;5052262;28;20202;-61
2022/01/30 02:14:02;;;;;;;3.28;2.15;;;5.50;94.10;;;;;;5052311;28;20232;-63
2022/01/30 02:25:01;;;;;;;2.70;2.50;;;5.70;93.80;;;;;;5052255;28;20205;-62
2022/01/30 02:27:33;;;;;;;2.78;2.58;;;5.60;94.10;;;;;;5052343;28;20236;-62
2022/01/30 02:30:01;;;;;;;2.80;2.38;;;5.50;94.70;;;;;;5050975;28;20214;-62
2022/01/30 02:32:28;;;;;;;2.40;2.20;;;5.60;94.90;;;;;;5052035;28;20208;-62
2022/01/30 02:34:55;;;;;;;3.60;2.65;;;5.70;95.20;;;;;;5052099;28;20255;-62
2022/01/30 02:37:21;;;;;;;2.65;2.40;;;5.60;94.70;;;;;;5052252;28;20205;-62
2022/01/30 02:39:50;;;;;;;2.72;2.47;;;5.50;94.80;;;;;;5051901;28;20201;-59
2022/01/30 02:42:20;;;;;;;2.70;2.50;;;5.50;95.00;;;;;;5052135;28;20205;-59
2022/01/30 02:44:52;;;;;;;2.80;2.60;;;5.50;95.40;;;;;;5053300;28;20214;-63
2022/01/30 02:47:38;;;;;;;3.15;2.85;;;5.50;95.50;;;;;;5055563;28;20205;-61
2022/01/30 02:50:12;;;;;;;3.15;2.50;;;5.50;95.40;;;;;;5055415;28;20600;-62
2022/01/30 02:52:41;;;;;;;3.80;3.00;;;5.50;95.40;;;;;;5055679;28;20205;-59
2022/01/30 02:55:11;;;;;;;2.60;2.40;;;5.50;95.20;;;;;;5055538;28;20225;-59
2022/01/30 02:57:38;;;;;;;2.72;2.50;;;5.60;95.40;;;;;;5055370;28;20209;-62
2022/01/30 03:00:08;;;;;;;3.35;2.58;;;5.70;95.20;;;;;;5053880;28;20234;-62
2022/01/30 03:02:35;;;;;;;5.60;2.70;;;5.80;94.50;;;;;;5055068;28;20284;-62
2022/01/30 03:05:02;;;;;;;2.22;2.03;;;5.90;94.30;;;;;;5055392;28;20229;-62
2022/01/30 03:07:29;;;;;;;3.10;2.35;;;6.00;93.60;;;;;;5055230;28;20201;-62
2022/01/30 03:09:56;;;;;;;2.88;2.22;;;6.10;93.30;;;;;;5055195;28;20201;-60
2022/01/30 03:12:25;;;;;;;2.78;2.03;;;6.30;93.20;;;;;;5055167;28;20624;-62
2022/01/30 03:14:51;;;;;;;2.70;2.28;;;6.30;92.40;;;;;;5053756;28;20722;-59
2022/01/30 03:17:18;;;;;;;2.58;2.28;;;6.40;92.40;;;;;;5054820;28;20252;-60
2022/01/30 03:19:45;;;;;;;3.03;2.22;;;6.50;92.20;;;;;;5055144;28;20220;-60
2022/01/30 03:22:12;;;;;;;6.78;2.30;;;6.40;92.20;;;;;;5054995;28;20229;-59
2022/01/30 03:24:39;;;;;;;2.33;2.13;;;6.40;92.50;;;;;;5054839;28;20205;-62
2022/01/30 03:27:09;;;;;;;2.35;2.15;;;6.40;92.70;;;;;;5054935;28;20209;-61
2022/01/30 03:29:38;;;;;;;2.88;2.03;;;6.40;92.40;;;;;;5053396;28;20213;-59
2022/01/30 03:32:06;;;;;;;1.88;1.77;;;6.40;92.50;;;;;;5054639;28;20292;-60
2022/01/30 03:34:34;;;;;;;3.50;2.20;;;6.50;92.50;;;;;;5054625;28;20713;-59
2022/01/30 03:37:01;;;;;;;2.00;1.80;;;6.50;92.20;;;;;;5054570;28;20233;-60
2022/01/30 03:39:28;;;;;;;2.65;1.80;;;6.50;92.20;;;;;;5054833;28;20221;-60
2022/01/30 03:41:55;;;;;;;2.30;1.90;;;6.40;91.50;;;;;;5054573;28;20201;-62
2022/01/30 03:44:22;;;;;;;2.10;1.90;;;6.40;91.80;;;;;;5053003;28;20667;-61
2022/01/30 03:46:50;;;;;;;2.08;1.83;;;6.30;92.00;;;;;;5054424;28;20211;-59
2022/01/30 03:49:17;;;;;;;1.60;1.50;;;6.40;92.20;;;;;;5054334;28;20201;-62
2022/01/30 03:51:43;;;;;;;3.40;1.90;;;6.50;91.60;;;;;;5054395;28;20205;-59
2022/01/30 03:54:10;;;;;;;1.70;1.60;;;6.50;91.40;;;;;;5054036;28;20224;-62
2022/01/30 03:56:37;;;;;;;4.10;1.90;;;6.50;91.40;;;;;;5054329;28;20710;-62
2022/01/30 03:59:04;;;;;;;2.10;1.90;;;6.50;91.10;;;;;;5052862;28;20212;-61
2022/01/30 04:01:31;;;;;;;4.45;2.10;;;6.50;90.80;;;;;;5054023;28;20237;-62
2022/01/30 04:03:59;;;;;;;2.10;2.00;;;6.60;90.40;;;;;;5054054;28;20284;-61
2022/01/30 04:06:26;;;;;;;2.22;1.90;;;6.60;90.40;;;;;;5054182;28;20201;-60
2022/01/30 04:08:53;;;;;;;3.92;2.47;;;6.60;89.50;;;;;;5054050;28;20211;-60
2022/01/30 04:11:20;;;;;;;2.28;2.08;;;6.50;89.20;;;;;;5053962;28;20205;-60
2022/01/30 04:13:47;;;;;;;2.92;2.25;;;6.40;89.60;;;;;;5053470;28;20206;-57
2022/01/30 04:16:15;;;;;;;5.35;2.30;;;6.40;89.60;;;;;;5053132;28;20235;-59
2022/01/30 04:18:42;;;;;;;3.08;2.13;;;6.50;89.80;;;;;;5053812;28;20292;-61
2022/01/30 04:21:10;;;;;;;2.00;1.77;;;6.70;89.40;;;;;;5053881;28;20212;-60
2022/01/30 04:23:39;;;;;;;4.18;2.30;;;6.80;88.90;;;;;;5053731;28;20202;-58
2022/01/30 04:26:06;;;;;;;3.45;2.60;;;6.90;87.90;;;;;;5053697;28;20206;-61
2022/01/30 04:28:33;;;;;;;5.03;2.60;;;6.90;87.20;;;;;;5053663;28;20201;-62
2022/01/30 04:31:00;;;;;;;4.45;2.80;;;6.90;87.30;;;;;;5052273;28;20289;-58
2022/01/30 04:33:28;;;;;;;4.85;3.30;;;7.00;87.30;;;;;;5053472;28;20201;-60
2022/01/30 04:35:57;;;;;;;6.72;2.95;;;7.10;86.30;;;;;;5053441;28;20229;-61
2022/01/30 04:38:32;;;;;;;4.50;3.05;;;7.20;86.10;;;;;;5053582;28;20206;-59
2022/01/30 04:52:18;;;;;;;5.38;3.97;;;7.10;84.40;;;;;;5053354;28;20657;-60
2022/01/30 04:57:45;;;;;;;6.75;4.00;;;6.80;84.20;;;;;;5053038;28;20355;-59
2022/01/30 05:00:47;;;;;;;5.82;4.40;;;6.80;84.00;;;;;;5051647;28;20294;-61
2022/01/30 05:03:28;;;;;;;9.57;4.65;;;6.80;83.70;;;;;;5052999;28;20279;-58
2022/01/30 05:06:02;;;;;;;9.13;4.63;;;6.60;84.30;;;;;;5052581;28;20209;-61
2022/01/30 05:08:30;;;;;;;9.70;4.78;;;6.60;84.50;;;;;;5052885;28;20622;-60
2022/01/30 05:11:01;;;;;;;4.70;4.30;;;6.50;83.80;;;;;;5052958;28;20574;-61
2022/01/30 05:13:31;;;;;;;8.05;4.90;;;6.40;83.80;;;;;;5053103;28;20285;-60
2022/01/30 05:15:58;;;;;;;5.63;4.45;;;6.50;84.10;;;;;;5051463;28;20228;-59
2022/01/30 05:18:28;;;;;;;8.65;5.00;;;6.60;83.60;;;;;;5052611;28;20220;-60
2022/01/30 05:20:55;;;;;;;9.75;5.95;;;6.60;83.80;;;;;;5052784;28;20209;-58
2022/01/30 05:23:22;;;;;;;6.15;4.70;;;6.50;82.90;;;;;;5052859;28;20201;-59
2022/01/30 05:25:51;;;;;;;6.30;4.85;;;6.60;83.00;;;;;;5052795;28;20292;-61
2022/01/30 05:28:22;;;;;;;8.18;5.40;;;6.60;82.40;;;;;;5052780;28;20623;-62
2022/01/30 05:30:50;;;;;;;6.30;5.18;;;6.40;82.50;;;;;;5051181;28;20201;-60
2022/01/30 05:33:17;;;;;;;8.60;5.25;;;6.50;83.00;;;;;;5052596;28;20631;-59
2022/01/30 05:35:45;;;;;;;8.90;5.10;;;6.50;82.40;;;;;;5052609;28;20225;-61
2022/01/30 05:38:12;;;;;;;10.30;5.05;;;6.50;83.00;;;;;;5052747;28;20205;-59
2022/01/30 05:40:39;;;;;;;7.65;5.20;;;6.50;83.20;;;;;;5052673;28;20201;-61
2022/01/30 05:43:07;;;;;;;6.78;5.10;;;6.70;82.80;;;;;;5052585;28;20295;-61
2022/01/30 05:45:39;;;;;;;6.75;5.60;;;6.60;82.40;;;;;;5051342;28;20236;-60
2022/01/30 05:48:11;;;;;;;10.55;5.22;;;6.60;82.70;;;;;;5052424;28;20721;-61
2022/01/30 05:50:39;;;;;;;8.35;5.15;;;6.60;82.90;;;;;;5052535;28;20205;-61
2022/01/30 05:53:05;;;;;;;5.55;4.68;;;6.80;82.90;;;;;;5052574;28;20205;-62
2022/01/30 05:55:32;;;;;;;7.82;4.88;;;6.70;82.10;;;;;;5052570;28;20212;-60
2022/01/30 05:58:00;;;;;;;7.38;4.55;;;6.70;82.50;;;;;;5052513;28;20201;-60
2022/01/30 06:00:27;;;;;;;11.25;5.60;;;6.70;82.60;;;;;;5051053;28;20243;-60
2022/01/30 06:02:55;;;;;;;7.60;4.50;;;6.70;81.90;;;;;;5052310;28;20197;-61
2022/01/30 06:05:24;;;;;;;6.10;5.30;;;6.70;82.40;;;;;;5052467;28;20574;-61
2022/01/30 06:07:53;;;;;;;7.78;5.47;;;6.70;81.90;;;;;;5052563;28;20288;-58
2022/01/30 06:10:21;;;;;;;7.63;5.00;;;6.60;82.00;;;;;;5052285;28;20210;-58
2022/01/30 06:12:48;;;;;;;8.00;4.78;;;6.60;82.40;;;;;;5052298;28;20208;-60
2022/01/30 06:15:16;;;;;;;12.32;5.47;;;6.70;82.30;;;;;;5051169;28;20212;-60
2022/01/30 06:17:43;;;;;;;5.43;4.85;;;6.70;82.00;;;;;;5053009;28;20320;-58
2022/01/30 06:20:12;;;;;;;7.95;5.05;;;6.90;82.10;;;;;;5056218;28;20205;-60
2022/01/30 06:22:40;;;;;;;7.18;5.40;;;6.90;80.40;;;;;;5056130;28;20287;-61
2022/01/30 06:25:07;;;;;;;7.13;5.25;;;6.60;81.10;;;;;;5055873;28;20227;-60
2022/01/30 06:27:34;;;;;;;6.50;5.40;;;6.70;81.80;;;;;;5055920;28;20660;-59
2022/01/30 06:30:01;;;;;;;10.07;6.20;;;6.80;80.90;;;;;;5054625;28;20211;-60
2022/01/30 06:32:28;;;;;;;10.50;5.40;;;6.80;80.00;;;;;;5055839;28;20650;-58
2022/01/30 06:34:55;;;;;;;6.50;5.80;;;6.50;79.10;;;;;;5055751;28;20206;-59
2022/01/30 06:37:23;;;;;;;7.95;6.00;;;6.30;80.00;;;;;;5055657;28;20233;-60
2022/01/30 06:39:50;;;;;;;10.32;5.90;;;6.30;80.00;;;;;;5055724;28;20652;-58
2022/01/30 06:42:17;;;;;;;9.48;6.15;;;6.20;80.20;;;;;;5055736;28;20232;-59
2022/01/30 06:44:45;;;;;;;10.93;5.85;;;6.10;80.20;;;;;;5054347;28;20244;-58
2022/01/30 06:47:12;;;;;;;11.65;6.00;;;6.10;80.00;;;;;;5055515;28;20292;-58
2022/01/30 06:49:39;;;;;;;8.13;5.70;;;6.10;80.70;;;;;;5055333;28;20296;-58
2022/01/30 06:52:09;;;;;;;7.63;6.05;;;6.00;79.90;;;;;;5055364;28;20252;-60
2022/01/30 06:54:38;;;;;;;6.05;5.45;;;5.90;80.40;;;;;;5055456;28;20636;-57
2022/01/30 06:57:07;;;;;;;5.80;5.30;;;6.00;80.80;;;;;;5055427;28;20236;-59
2022/01/30 06:59:34;;;;;;;8.15;6.35;;;5.90;80.70;;;;;;5054153;28;20209;-59
2022/01/30 07:02:01;;;;;;;8.40;6.20;;;6.00;80.70;;;;;;5055197;28;20233;-59
2022/01/30 07:04:28;;;;;;;7.50;5.47;;;5.90;80.10;;;;;;5055201;28;20225;-61
2022/01/30 07:06:54;;;;;;;6.57;5.32;;;6.00;80.50;;;;;;5055255;28;20307;-59
2022/01/30 07:09:21;;;;;;;8.45;5.53;;;5.70;80.50;;;;;;5055247;28;20205;-56
2022/01/30 07:11:50;;;;;;;9.50;5.90;;;5.70;81.00;;;;;;5055130;28;20202;-60
2022/01/30 07:14:16;;;;;;;9.25;5.47;;;5.70;81.10;;;;;;5053938;28;20296;-60
2022/01/30 07:16:43;;;;;;;6.40;5.30;;;5.90;81.20;;;;;;5055050;28;20332;-58
2022/01/30 07:19:10;;;;;;;5.40;4.95;;;6.00;80.40;;;;;;5054837;28;20201;-59
2022/01/30 07:21:37;;;;;;;6.72;5.38;;;6.00;79.50;;;;;;5054932;28;20732;-59
2022/01/30 07:24:04;;;;;;;10.18;4.88;;;5.90;79.90;;;;;;5054908;28;20324;-59
2022/01/30 07:26:32;;;;;;;6.53;5.35;;;5.90;79.90;;;;;;5054948;28;20205;-59
2022/01/30 07:29:03;;;;;;;5.78;5.00;;;5.90;80.20;;;;;;5053173;28;20535;-60
2022/01/30 07:31:30;;;;;;;6.95;5.18;;;5.70;80.70;;;;;;5054618;28;20206;-58
2022/01/30 07:33:57;;;;;;;6.63;5.65;;;5.80;81.30;;;;;;5054447;28;20277;-60
2022/01/30 07:36:24;;;;;;;9.48;5.35;;;5.80;81.00;;;;;;5054531;28;20243;-58
2022/01/30 07:38:51;;;;;;;9.63;5.68;;;5.80;81.10;;;;;;5054741;28;20613;-60
2022/01/30 07:41:18;;;;;;;9.80;5.60;;;5.80;81.00;;;;;;5054639;28;20375;-59
2022/01/30 07:43:45;;;;;;;9.07;5.75;;;5.90;81.00;;;;;;5054676;28;20773;-59
2022/01/30 07:46:13;;;;;;;11.93;6.40;;;5.70;81.50;;;;;;5053138;28;20201;-59
2022/01/30 07:48:40;;;;;;;6.55;5.00;;;5.70;82.00;;;;;;5054370;28;20648;-58
2022/01/30 07:51:07;;;;;;;8.13;6.05;;;5.60;82.50;;;;;;5054435;28;20201;-58
2022/01/30 07:53:35;;;;;;;7.78;6.90;;;5.70;82.20;;;;;;5054305;28;20673;-59
2022/01/30 07:56:02;;;;;;;10.85;5.80;;;5.80;81.90;;;;;;5054339;28;20725;-59
2022/01/30 07:58:28;;;;;;;8.18;6.03;;;5.70;81.70;;;;;;5054198;28;20237;-59
2022/01/30 08:00:55;;;;;;;10.73;5.68;;;5.50;81.60;;;;;;5052567;28;20244;-58
2022/01/30 08:03:23;;;;;;;6.55;5.25;;;5.60;81.70;;;;;;5054049;28;20205;-60
2022/01/30 08:05:50;;;;;;;8.07;5.90;;;5.60;81.70;;;;;;5054431;28;20204;-59
2022/01/30 08:08:17;;;;;;;10.13;5.80;;;5.70;81.00;;;;;;5054129;28;20214;-58
2022/01/30 08:10:44;;;;;;;7.85;5.68;;;5.80;80.60;;;;;;5054169;28;20649;-58
2022/01/30 08:13:11;;;;;;;11.10;5.75;;;5.80;80.40;;;;;;5054072;28;20236;-60
2022/01/30 08:15:38;;;;;;;9.98;5.80;;;5.90;79.70;;;;;;5052382;28;20240;-60
2022/01/30 08:18:04;;;;;;;11.52;5.78;;;5.90;79.10;;;;;;5053704;28;20327;-59
2022/01/30 08:20:33;;;;;;;7.90;5.80;;;5.90;79.90;;;;;;5053930;28;20693;-59
2022/01/30 08:23:06;;;;;;;10.70;5.95;;;5.90;79.30;;;;;;5053723;28;20198;-58
2022/01/30 08:25:33;;;;;;;10.10;5.68;;;5.90;78.80;;;;;;5053814;28;20610;-58
2022/01/30 08:28:00;;;;;;;7.55;5.63;;;5.90;78.80;;;;;;5053587;28;20227;-59
2022/01/30 08:30:27;;;;;;;13.13;5.90;;;6.00;78.80;;;;;;5052474;28;20209;-60
2022/01/30 08:32:54;;;;;;;9.75;5.35;;;6.10;78.60;;;;;;5053470;28;20629;-57
2022/01/30 08:35:21;;;;;;;16.02;7.03;;;6.10;78.00;;;;;;5053518;28;20227;-59
2022/01/30 08:37:49;;;;;;;5.85;5.30;;;6.20;77.20;;;;;;5053414;28;20229;-59
2022/01/30 08:40:19;;;;;;;6.85;6.30;;;6.20;77.10;;;;;;5053426;28;20218;-59
2022/01/30 08:42:47;;;;;;;10.32;6.32;;;6.00;76.50;;;;;;5052429;28;20667;-59
2022/01/30 08:45:16;;;;;;;8.50;5.60;;;6.00;77.60;;;;;;5052169;28;20422;-59
2022/01/30 08:47:44;;;;;;;9.20;6.68;;;5.90;77.80;;;;;;5053390;28;20742;-59
2022/01/30 08:50:13;;;;;;;8.55;6.25;;;5.90;77.60;;;;;;5053108;28;20747;-58
2022/01/30 08:52:39;;;;;;;7.28;6.50;;;6.00;77.60;;;;;;5053229;28;20232;-56
2022/01/30 08:55:09;;;;;;;7.20;6.50;;;6.00;76.40;;;;;;5053055;28;20207;-58
2022/01/30 08:57:36;;;;;;;11.30;6.50;;;6.00;76.20;;;;;;5053040;28;20235;-59
2022/01/30 09:00:07;;;;;;;12.32;6.20;;;6.00;76.70;;;;;;5051881;28;20284;-59
2022/01/30 09:02:34;;;;;;;7.10;6.30;;;5.90;76.00;;;;;;5053036;28;20288;-59
2022/01/30 09:05:00;;;;;;;11.55;6.00;;;5.80;75.70;;;;;;5053074;28;20213;-58
2022/01/30 09:07:27;;;;;;;8.25;6.65;;;5.80;76.40;;;;;;5052859;28;20288;-59
2022/01/30 09:09:54;;;;;;;16.30;6.05;;;5.90;76.80;;;;;;5052918;28;20381;-58
2022/01/30 09:12:22;;;;;;;12.55;6.05;;;6.00;76.30;;;;;;5053052;28;20344;-59
2022/01/30 09:14:49;;;;;;;13.35;6.50;;;5.80;76.60;;;;;;5051565;28;20217;-59
2022/01/30 09:17:17;;;;;;;13.13;8.82;;;5.90;77.30;;;;;;5052718;28;20695;-59
2022/01/30 09:19:45;;;;;;;9.65;5.85;;;5.90;77.00;;;;;;5052733;28;20291;-59
2022/01/30 09:22:14;;;;;;;10.63;6.47;;;5.90;76.90;;;;;;5052781;28;20208;-58
2022/01/30 09:24:41;;;;;;;10.73;6.55;;;6.10;77.20;;;;;;5052890;28;20206;-61
2022/01/30 09:27:09;;;;;;;11.15;6.70;;;6.00;76.20;;;;;;5052728;28;20201;-59
2022/01/30 09:29:39;;;;;;;9.57;6.50;;;5.80;76.80;;;;;;5051525;28;20215;-58
2022/01/30 09:32:08;;;;;;;11.52;6.30;;;5.80;77.20;;;;;;5052679;28;20197;-60
2022/01/30 09:34:35;;;;;;;6.93;6.22;;;5.90;76.00;;;;;;5052610;28;20206;-58
2022/01/30 09:37:02;;;;;;;9.55;6.68;;;5.80;75.90;;;;;;5052404;28;20225;-58
2022/01/30 09:39:29;;;;;;;14.45;7.00;;;5.90;76.90;;;;;;5052521;28;20582;-59
2022/01/30 09:41:57;;;;;;;6.65;6.03;;;5.90;77.70;;;;;;5052591;28;20658;-58
2022/01/30 09:44:24;;;;;;;9.60;6.65;;;5.90;76.70;;;;;;5051288;28;20651;-57
2022/01/30 09:46:52;;;;;;;7.40;6.70;;;5.90;76.50;;;;;;5052569;28;20709;-59
2022/01/30 09:49:23;;;;;;;8.23;6.32;;;6.00;77.40;;;;;;5052191;28;20260;-58
2022/01/30 09:51:53;;;;;;;8.80;6.47;;;6.00;77.30;;;;;;5052574;28;20211;-59
2022/01/30 09:54:20;;;;;;;9.07;6.55;;;6.00;76.60;;;;;;5056101;28;20660;-58
2022/01/30 09:56:46;;;;;;;6.80;6.10;;;6.20;76.10;;;;;;5056495;28;20287;-58
2022/01/30 09:59:13;;;;;;;9.00;7.07;;;6.40;74.50;;;;;;5055181;28;20212;-58
2022/01/30 10:01:40;;;;;;;8.45;6.80;;;6.50;73.50;;;;;;5056395;28;20738;-59
2022/01/30 10:04:08;;;;;;;9.27;7.80;;;6.50;72.00;;;;;;5056182;28;20201;-58
2022/01/30 10:06:52;;;;;;;9.60;7.97;;;6.50;71.30;;;;;;5056409;28;20208;-58
2022/01/30 10:09:27;;;;;;;9.05;7.90;;;6.50;70.70;;;;;;5056254;28;20291;-58
2022/01/30 10:12:10;;;;;;;10.57;7.40;;;6.40;70.20;;;;;;5056421;28;20563;-58
2022/01/30 10:14:52;;;;;;;8.10;7.28;;;6.30;70.20;;;;;;5054807;28;20699;-58
2022/01/30 10:17:30;;;;;;;12.15;7.00;;;6.40;71.40;;;;;;5056039;28;20225;-57
2022/01/30 10:20:10;;;;;;;10.20;7.60;;;6.40;70.80;;;;;;5055941;28;20301;-57
2022/01/30 10:22:48;;;;;;;8.07;6.78;;;6.40;71.10;;;;;;5056081;28;20201;-57
2022/01/30 10:25:19;;;;;;;8.07;7.32;;;6.50;71.20;;;;;;5056051;28;20224;-57
2022/01/30 10:27:46;;;;;;;8.27;7.57;;;6.40;70.30;;;;;;5055998;28;20212;-57
2022/01/30 10:30:12;;;;;;;9.15;7.10;;;6.40;70.40;;;;;;5054672;28;20205;-57
2022/01/30 10:32:39;;;;;;;9.80;6.65;;;6.40;69.40;;;;;;5055761;28;20569;-59
2022/01/30 10:35:10;;;;;;;9.50;7.13;;;6.40;69.80;;;;;;5055659;28;20197;-58
2022/01/30 10:37:39;;;;;;;10.65;7.68;;;6.30;71.00;;;;;;5055909;28;20240;-59
2022/01/30 10:40:12;;;;;;;9.55;7.63;;;6.30;70.40;;;;;;5055691;28;20238;-58
2022/01/30 10:42:42;;;;;;;8.02;7.22;;;6.40;71.20;;;;;;5055744;28;20205;-58
2022/01/30 10:45:14;;;;;;;9.60;7.28;;;6.50;71.70;;;;;;5054343;28;20682;-56
2022/01/30 10:47:43;;;;;;;7.82;7.18;;;6.60;71.20;;;;;;5055578;28;20216;-57
2022/01/30 10:50:14;;;;;;;8.18;7.35;;;6.50;70.30;;;;;;5055371;28;20205;-57
2022/01/30 10:52:56;;;;;;;7.05;6.55;;;6.50;70.30;;;;;;5055593;28;20212;-57
2022/01/30 10:55:38;;;;;;;7.65;6.88;;;6.40;69.00;;;;;;5055579;28;20208;-57
2022/01/30 10:58:06;;;;;;;10.63;7.40;;;6.40;68.80;;;;;;5055214;28;20233;-55
2022/01/30 11:00:41;;;;;;;7.82;7.03;;;6.30;70.60;;;;;;5053668;28;20699;-56
2022/01/30 11:03:09;;;;;;;7.13;6.28;;;6.30;70.00;;;;;;5055158;28;20208;-58
2022/01/30 11:05:59;;;;;;;7.53;6.68;;;6.30;69.70;;;;;;5053881;28;20204;-57
2022/01/30 11:08:28;;;;;;;8.90;6.18;;;6.40;69.70;;;;;;5055017;28;20206;-57
2022/01/30 11:11:04;;;;;;;11.93;7.70;;;6.50;69.40;;;;;;5054886;28;20193;-57
2022/01/30 11:13:33;;;;;;;7.45;6.80;;;6.50;70.00;;;;;;5054944;28;20200;-56
2022/01/30 11:18:44;;;;;;;13.38;7.78;;;6.60;69.60;;;;;;5054403;28;20225;-58
2022/01/30 11:21:12;;;;;;;8.70;8.00;;;6.70;69.80;;;;;;5054786;28;20201;-58
2022/01/30 11:23:41;;;;;;;9.32;7.13;;;6.70;69.90;;;;;;5054939;28;20208;-58
2022/01/30 11:26:10;;;;;;;8.30;7.03;;;6.90;69.70;;;;;;5054818;28;20601;-58
2022/01/30 11:28:38;;;;;;;9.50;7.00;;;7.00;69.20;;;;;;5054970;28;20208;-57
2022/01/30 11:31:06;;;;;;;7.55;6.60;;;6.80;68.50;;;;;;5053401;28;20578;-58
2022/01/30 11:33:34;;;;;;;8.98;7.82;;;6.60;69.30;;;;;;5054587;28;20215;-58
2022/01/30 11:36:02;;;;;;;7.25;6.35;;;6.50;69.60;;;;;;5054561;28;20296;-58
2022/01/30 11:38:30;;;;;;;8.38;7.15;;;7.10;69.90;;;;;;5054738;28;20236;-59
2022/01/30 11:41:11;;;;;;;9.15;7.20;;;8.70;67.50;;;;;;5054557;28;20197;-58
2022/01/30 11:43:38;;;;;;;8.18;7.40;;;10.20;58.40;;;;;;5054521;28;20617;-58
2022/01/30 11:46:15;;;;;;;9.60;7.75;;;11.00;58.20;;;;;;5053311;28;20292;-58
2022/01/30 11:48:43;;;;;;;8.77;7.88;;;12.20;56.00;;;;;;5054365;28;20197;-59
2022/01/30 11:51:10;;;;;;;7.43;6.78;;;12.40;52.80;;;;;;5054365;28;20567;-57
2022/01/30 11:53:38;;;;;;;10.15;7.78;;;12.50;51.10;;;;;;5054364;28;20235;-59
2022/01/30 11:56:06;;;;;;;9.15;7.80;;;13.30;49.50;;;;;;5054280;28;20211;-60
2022/01/30 11:58:49;;;;;;;8.07;7.30;;;14.00;49.80;;;;;;5054271;28;20287;-61
2022/01/30 12:01:35;;;;;;;11.88;8.55;;;14.90;45.90;;;;;;5053286;28;20241;-61
2022/01/30 12:04:04;;;;;;;8.02;7.28;;;14.40;44.80;;;;;;5053871;28;20212;-58
2022/01/30 12:06:33;;;;;;;7.25;6.75;;;13.60;45.90;;;;;;5054191;28;20288;-57
2022/01/30 12:09:02;;;;;;;7.13;6.68;;;13.00;47.70;;;;;;5054243;28;20399;-59
2022/01/30 12:11:54;;;;;;;7.60;6.90;;;13.00;47.80;;;;;;5054014;28;20221;-59
2022/01/30 12:14:49;;;;;;;8.65;7.95;;;13.70;45.10;;;;;;5052895;28;20646;-58
2022/01/30 12:17:31;;;;;;;11.60;9.15;;;13.90;46.30;;;;;;5029888;28;20205;-59
2022/01/30 12:20:05;;;;;;;8.63;7.85;;;13.60;46.70;;;;;;5044899;28;20205;-62
2022/01/30 12:22:40;;;;;;;7.90;7.20;;;13.50;46.70;;;;;;5053892;28;20205;-60
2022/01/30 12:25:31;;;;;;;9.63;7.85;;;14.00;49.50;;;;;;5053847;28;20205;-63
2022/01/30 12:28:00;;;;;;;9.82;8.70;;;15.20;46.40;;;;;;5053769;28;20206;-59
2022/01/30 12:30:37;;;;;;;8.05;7.50;;;16.00;42.00;;;;;;5052372;28;20245;-60
2022/01/30 12:33:19;;;;;;;9.00;8.20;;;14.00;44.20;;;;;;5053621;28;20288;-59
2022/01/30 12:35:46;;;;;;;8.38;7.53;;;13.40;47.20;;;;;;5053342;28;20207;-59
2022/01/30 12:38:13;;;;;;;8.57;7.75;;;13.70;46.60;;;;;;5053304;28;20225;-59
2022/01/30 12:40:46;;;;;;;8.52;7.78;;;13.50;46.20;;;;;;5053422;28;20208;-59
2022/01/30 12:43:13;;;;;;;8.68;7.82;;;12.90;47.40;;;;;;5053328;28;20212;-58
2022/01/30 12:45:39;;;;;;;8.70;7.45;;;12.30;48.30;;;;;;5052109;28;20229;-58
2022/01/30 12:48:09;;;;;;;8.70;7.65;;;12.30;49.70;;;;;;5053254;28;20201;-58
2022/01/30 12:50:38;;;;;;;7.97;7.15;;;11.70;49.50;;;;;;5053186;28;20207;-58
2022/01/30 12:53:07;;;;;;;9.73;7.53;;;11.40;51.50;;;;;;5053072;28;20205;-58
2022/01/30 12:55:34;;;;;;;8.57;7.68;;;11.60;51.40;;;;;;5053260;28;20206;-60
2022/01/30 12:58:03;;;;;;;7.85;7.15;;;11.30;51.10;;;;;;5053037;28;20225;-56
2022/01/30 13:00:30;;;;;;;8.20;7.28;;;10.40;53.30;;;;;;5051652;28;20244;-56
2022/01/30 13:02:59;;;;;;;7.45;6.95;;;10.10;55.10;;;;;;5052994;28;20659;-59
2022/01/30 13:05:27;;;;;;;14.45;8.02;;;9.80;55.70;;;;;;5052936;28;20205;-55
2022/01/30 13:07:55;;;;;;;8.20;5.45;;;9.10;57.60;;;;;;5053086;28;20201;-56
2022/01/30 13:10:23;;;;;;;7.50;6.70;;;8.80;59.40;;;;;;5053137;28;20204;-56
2022/01/30 13:12:51;;;;;;;8.43;7.63;;;8.60;59.90;;;;;;5052805;28;20205;-56
2022/01/30 13:15:22;;;;;;;8.40;7.50;;;8.30;61.80;;;;;;5051685;28;20235;-57
2022/01/30 13:17:50;;;;;;;8.00;7.25;;;8.10;61.60;;;;;;5052775;28;20201;-55
2022/01/30 13:20:24;;;;;;;9.48;7.40;;;7.80;62.30;;;;;;5052587;28;20229;-56
2022/01/30 13:22:52;;;;;;;8.80;7.65;;;7.70;62.20;;;;;;5053124;28;20702;-55
2022/01/30 13:25:21;;;;;;;9.88;6.05;;;7.70;62.20;;;;;;5052728;28;20205;-56
2022/01/30 13:27:50;;;;;;;7.97;7.35;;;7.60;61.30;;;;;;5052169;28;20746;-56
2022/01/30 13:30:22;;;;;;;9.73;7.20;;;7.60;62.20;;;;;;5051544;28;20213;-56
2022/01/30 13:32:50;;;;;;;11.82;7.65;;;7.80;62.50;;;;;;5052587;28;20635;-57
2022/01/30 13:35:18;;;;;;;7.70;6.93;;;8.00;64.30;;;;;;5052376;28;20205;-56
2022/01/30 13:37:46;;;;;;;7.38;6.32;;;8.10;63.70;;;;;;5052459;28;20712;-57
2022/01/30 13:40:19;;;;;;;8.93;7.88;;;8.50;62.80;;;;;;5052688;28;20243;-56